Time;durP1;ratioP1;P1;durP2;ratioP2;P2;SDS_P1;SDS_P2;PMS_P1;PMS_P2;Temp;Humidity;BMP_temperature;BMP_pressure;BME280_temperature;BME280_humidity;BME280_pressure;Samples;Min_cycle;Max_cycle;Signal;HPM_P1;HPM_P2
2022/11/14 00:00:34;;;;;;;66.55;20.73;;;6.40;99.90;;;;;;5118561;27;20027;-81
2022/11/14 00:03:02;;;;;;;64.65;19.42;;;6.40;99.90;;;;;;5136043;27;20035;-77
2022/11/14 00:05:28;;;;;;;62.97;19.55;;;6.40;99.90;;;;;;5135234;27;20047;-82
2022/11/14 00:07:54;;;;;;;61.42;18.85;;;6.40;99.90;;;;;;5117271;27;20126;-83
2022/11/14 00:10:20;;;;;;;63.88;20.13;;;6.50;99.90;;;;;;5136798;27;20074;-83
2022/11/14 00:12:46;;;;;;;63.95;19.08;;;6.40;99.90;;;;;;5135841;27;20039;-78
2022/11/14 00:15:12;;;;;;;62.10;19.85;;;6.50;99.90;;;;;;5099687;27;20039;-86
2022/11/14 00:17:39;;;;;;;65.38;17.77;;;6.50;99.90;;;;;;5135223;27;20049;-82
2022/11/14 00:20:06;;;;;;;66.10;19.35;;;6.60;99.90;;;;;;5134411;27;20042;-81
2022/11/14 00:22:32;;;;;;;65.20;21.40;;;6.50;99.90;;;;;;5135081;27;20047;-81
2022/11/14 00:24:58;;;;;;;62.35;19.58;;;6.60;99.90;;;;;;5099787;27;20355;-81
2022/11/14 00:27:24;;;;;;;67.50;21.30;;;6.50;99.90;;;;;;5116411;27;20514;-82
2022/11/14 00:29:50;;;;;;;66.68;20.83;;;6.50;99.90;;;;;;5116181;27;20047;-83
2022/11/14 00:32:16;;;;;;;66.15;21.25;;;6.50;99.90;;;;;;5134327;27;20050;-81
2022/11/14 00:34:42;;;;;;;70.38;22.20;;;6.50;99.90;;;;;;5134693;27;20043;-82
2022/11/14 00:37:07;;;;;;;65.10;20.67;;;6.50;99.90;;;;;;5115283;27;20043;-82
2022/11/14 00:39:33;;;;;;;70.47;21.65;;;6.50;99.90;;;;;;5133534;27;20043;-83
2022/11/14 00:41:59;;;;;;;73.45;22.80;;;6.50;99.90;;;;;;5134309;27;20051;-79
2022/11/14 00:44:25;;;;;;;67.53;22.15;;;6.50;99.90;;;;;;5081981;27;20039;-82
2022/11/14 00:46:50;;;;;;;68.65;22.40;;;6.50;99.90;;;;;;5115627;27;20474;-82
2022/11/14 00:49:16;;;;;;;67.32;21.50;;;6.40;99.90;;;;;;5134054;27;20118;-82
2022/11/14 00:51:42;;;;;;;66.60;21.77;;;6.50;99.90;;;;;;5134003;27;20126;-83
2022/11/14 00:54:07;;;;;;;69.97;22.58;;;6.40;99.90;;;;;;5134117;27;20071;-78
2022/11/14 00:56:33;;;;;;;69.72;22.17;;;6.40;99.90;;;;;;5133931;27;20502;-81
2022/11/14 00:58:59;;;;;;;71.80;22.67;;;6.50;99.90;;;;;;5116124;28;20118;-81
2022/11/14 01:01:24;;;;;;;74.72;22.98;;;6.40;99.90;;;;;;5135325;28;20047;-78
2022/11/14 01:03:51;;;;;;;75.10;24.55;;;6.40;99.90;;;;;;5139048;28;20047;-81
2022/11/14 01:06:18;;;;;;;70.63;22.83;;;6.40;99.90;;;;;;5137971;28;20410;-85
2022/11/14 01:08:44;;;;;;;78.15;23.13;;;6.30;99.90;;;;;;5119319;28;20415;-81
2022/11/14 01:11:17;;;;;;;75.97;24.63;;;6.20;99.90;;;;;;5134413;28;20047;-80
2022/11/14 01:13:43;;;;;;;79.07;24.88;;;6.10;99.90;;;;;;5116078;28;20044;-83
2022/11/14 01:16:09;;;;;;;78.30;23.10;;;6.10;99.90;;;;;;5135080;28;20130;-82
2022/11/14 01:18:36;;;;;;;76.05;24.17;;;6.10;99.90;;;;;;5116842;28;20043;-82
2022/11/14 01:21:06;;;;;;;;;;;6.10;99.90;;;;;;5115979;28;20055;-81
2022/11/14 01:23:32;;;;;;;75.47;22.02;;;6.10;99.90;;;;;;5135087;28;19919;-84
2022/11/14 01:26:03;;;;;;;81.35;24.95;;;6.10;99.90;;;;;;5116098;28;20130;-84
2022/11/14 01:28:29;;;;;;;75.28;22.95;;;6.10;99.90;;;;;;5115846;28;20522;-82
2022/11/14 01:30:54;;;;;;;82.45;24.70;;;6.10;99.90;;;;;;5116761;28;20043;-84
2022/11/14 01:33:20;;;;;;;76.57;24.38;;;6.00;99.90;;;;;;5116804;28;20039;-82
2022/11/14 01:35:46;;;;;;;79.95;24.35;;;6.00;99.90;;;;;;5133779;28;20204;-80
2022/11/14 01:38:13;;;;;;;76.88;25.48;;;5.90;99.90;;;;;;5098882;28;20054;-80
2022/11/14 01:40:45;;;;;;;77.93;24.90;;;5.90;99.90;;;;;;5133146;28;20043;-84
2022/11/14 01:43:22;;;;;;;79.90;24.60;;;5.80;99.90;;;;;;5099499;28;20490;-83
2022/11/14 01:46:00;;;;;;;74.07;22.83;;;5.90;99.90;;;;;;5116128;28;20129;-83
2022/11/14 01:48:37;;;;;;;76.53;25.10;;;5.90;99.90;;;;;;5135025;27;20043;-85
2022/11/14 01:51:20;;;;;;;78.20;26.05;;;5.80;99.90;;;;;;5138052;27;20483;-85
2022/11/14 01:53:49;;;;;;;77.20;26.60;;;5.70;99.90;;;;;;5120072;27;20112;-81
2022/11/14 01:56:19;;;;;;;73.53;23.33;;;5.70;99.90;;;;;;5138848;27;20057;-83
2022/11/14 01:58:51;;;;;;;81.70;25.55;;;5.70;99.90;;;;;;5126081;27;20378;-84
2022/11/14 02:01:17;;;;;;;82.20;26.15;;;5.60;99.90;;;;;;5148048;27;20059;-84
2022/11/14 02:03:48;;;;;;;87.07;26.30;;;5.60;99.90;;;;;;5152211;27;20057;-79
2022/11/14 02:06:19;;;;;;;82.70;26.52;;;5.60;99.90;;;;;;5134897;27;20065;-83
2022/11/14 02:08:45;;;;;;;84.82;26.85;;;5.50;99.90;;;;;;5131472;27;20122;-79
2022/11/14 02:11:11;;;;;;;83.25;26.50;;;5.70;99.90;;;;;;5121521;27;20080;-78
2022/11/14 02:13:37;;;;;;;81.33;25.93;;;5.70;99.90;;;;;;5138352;27;20054;-85
2022/11/14 02:16:04;;;;;;;82.82;24.60;;;5.60;99.90;;;;;;5137437;27;20050;-82
2022/11/14 02:18:30;;;;;;;90.53;27.65;;;5.70;99.90;;;;;;5119351;27;20043;-84
2022/11/14 02:20:55;;;;;;;89.85;26.67;;;5.70;99.90;;;;;;5102575;27;20054;-80
2022/11/14 02:23:30;;;;;;;90.97;27.38;;;5.60;99.90;;;;;;5102631;27;20080;-84
2022/11/14 02:25:56;;;;;;;92.38;27.40;;;5.60;99.90;;;;;;5137852;27;20067;-85
2022/11/14 02:28:22;;;;;;;83.15;26.25;;;5.70;99.90;;;;;;5119087;27;20118;-83
2022/11/14 02:30:48;;;;;;;87.30;27.85;;;5.60;99.90;;;;;;5119521;27;20043;-83
2022/11/14 02:33:14;;;;;;;84.97;27.40;;;5.70;99.90;;;;;;5137947;27;20043;-83
2022/11/14 02:35:41;;;;;;;90.72;27.92;;;5.60;99.90;;;;;;5120741;27;20043;-86
2022/11/14 02:38:07;;;;;;;85.30;27.23;;;5.60;99.90;;;;;;5141574;27;20082;-84
2022/11/14 02:40:32;;;;;;;80.88;27.45;;;5.60;99.90;;;;;;5108831;27;20055;-86
2022/11/14 02:42:58;;;;;;;87.63;26.52;;;5.60;99.90;;;;;;5143282;27;20039;-80
2022/11/14 02:45:24;;;;;;;83.28;25.63;;;5.60;99.90;;;;;;5137933;27;20078;-80
2022/11/14 02:47:50;;;;;;;89.40;28.27;;;5.60;99.90;;;;;;5139870;27;20460;-85
2022/11/14 02:50:16;;;;;;;85.65;27.30;;;5.70;99.90;;;;;;5119937;27;20104;-78
2022/11/14 02:52:42;;;;;;;94.63;28.80;;;5.70;99.90;;;;;;5103531;27;20391;-85
2022/11/14 02:55:09;;;;;;;83.80;28.30;;;5.70;99.90;;;;;;5122130;27;20047;-80
2022/11/14 02:57:35;;;;;;;87.78;29.02;;;5.80;99.90;;;;;;5138588;27;20127;-82
2022/11/14 03:00:00;;;;;;;90.47;27.55;;;5.70;99.90;;;;;;5101448;27;20131;-80
2022/11/14 03:02:26;;;;;;;93.20;28.92;;;5.80;99.90;;;;;;5138263;27;20047;-85
2022/11/14 03:04:52;;;;;;;96.50;30.05;;;5.80;99.90;;;;;;5103720;27;20154;-84
2022/11/14 03:07:21;;;;;;;95.05;28.13;;;5.80;99.90;;;;;;5105850;27;20100;-78
2022/11/14 03:09:46;;;;;;;86.85;26.55;;;5.80;99.90;;;;;;5136773;27;20086;-83
2022/11/14 03:12:18;;;;;;;71.65;22.48;;;5.90;99.90;;;;;;5139053;27;20047;-83
2022/11/14 03:14:44;;;;;;;94.43;29.52;;;5.90;99.90;;;;;;5102850;27;20502;-82
2022/11/14 03:17:10;;;;;;;93.80;30.00;;;5.90;99.90;;;;;;5121055;27;20047;-83
2022/11/14 03:19:36;;;;;;;86.28;28.15;;;5.80;99.90;;;;;;5140066;27;20054;-78
2022/11/14 03:22:03;;;;;;;65.72;21.17;;;5.80;99.90;;;;;;5104369;27;20104;-80
2022/11/14 03:24:29;;;;;;;86.00;29.33;;;5.90;99.90;;;;;;5144169;27;20158;-82
2022/11/14 03:26:55;;;;;;;83.95;26.98;;;5.70;99.90;;;;;;5128431;27;20058;-83
2022/11/14 03:29:20;;;;;;;93.07;29.33;;;5.80;99.90;;;;;;5144463;27;20043;-79
2022/11/14 03:31:46;;;;;;;90.20;28.70;;;5.80;99.90;;;;;;5143340;27;20142;-81
2022/11/14 03:34:12;;;;;;;90.60;28.38;;;5.70;99.90;;;;;;5142445;27;20054;-85
2022/11/14 03:36:38;;;;;;;82.55;28.00;;;5.70;99.90;;;;;;5104777;27;20055;-82
2022/11/14 03:39:04;;;;;;;87.40;28.90;;;5.70;99.90;;;;;;5102522;27;20097;-84
2022/11/14 03:41:31;;;;;;;89.83;28.30;;;5.70;99.90;;;;;;5087281;27;20539;-83
2022/11/14 03:43:57;;;;;;;90.70;28.92;;;5.60;99.90;;;;;;5137750;27;20043;-81
2022/11/14 03:46:23;;;;;;;92.70;29.70;;;5.60;99.90;;;;;;5136543;27;20047;-77
2022/11/14 03:48:48;;;;;;;88.18;29.58;;;5.60;99.90;;;;;;5137648;27;20047;-85
2022/11/14 03:51:14;;;;;;;86.18;28.08;;;5.70;99.90;;;;;;5137450;27;20115;-81
2022/11/14 03:53:40;;;;;;;84.80;26.80;;;5.70;99.90;;;;;;5136539;27;20095;-80
2022/11/14 03:56:06;;;;;;;82.53;26.85;;;5.70;99.90;;;;;;5137716;27;20126;-83
2022/11/14 03:58:31;;;;;;;84.22;28.33;;;5.70;99.90;;;;;;5145057;27;20131;-81
2022/11/14 04:00:57;;;;;;;89.28;29.13;;;5.60;99.90;;;;;;5105214;27;20493;-82
2022/11/14 04:03:24;;;;;;;84.50;26.08;;;5.60;99.90;;;;;;5136912;27;20083;-77
2022/11/14 04:05:50;;;;;;;75.17;25.97;;;5.60;99.90;;;;;;5116940;27;20047;-79
2022/11/14 04:08:16;;;;;;;84.93;27.00;;;5.80;99.90;;;;;;5135946;27;20361;-81
2022/11/14 04:10:41;;;;;;;85.07;27.08;;;5.70;99.90;;;;;;5117834;27;20126;-83
2022/11/14 04:13:08;;;;;;;79.30;25.30;;;5.70;99.90;;;;;;5134652;27;20092;-80
2022/11/14 04:15:34;;;;;;;88.75;29.50;;;5.70;99.90;;;;;;5136532;27;20567;-80
2022/11/14 04:17:59;;;;;;;91.68;28.40;;;5.80;99.90;;;;;;5117314;27;20086;-80
2022/11/14 04:20:25;;;;;;;84.75;27.73;;;5.80;99.90;;;;;;5115941;27;20087;-79
2022/11/14 04:22:51;;;;;;;86.70;28.13;;;5.70;99.90;;;;;;5135197;27;20042;-84
2022/11/14 04:25:17;;;;;;;87.68;28.23;;;5.70;99.90;;;;;;5117722;27;20054;-80
2022/11/14 04:27:43;;;;;;;91.85;27.80;;;5.70;99.90;;;;;;5135095;27;20039;-82
2022/11/14 04:30:09;;;;;;;87.22;28.63;;;5.70;99.90;;;;;;5134623;27;20081;-82
2022/11/14 04:32:35;;;;;;;92.93;29.13;;;5.70;99.90;;;;;;5134912;27;20039;-85
2022/11/14 04:35:00;;;;;;;86.05;28.08;;;5.70;99.90;;;;;;5117090;28;20046;-83
2022/11/14 04:37:26;;;;;;;84.15;28.13;;;5.70;99.90;;;;;;5099638;27;20133;-84
2022/11/14 04:39:52;;;;;;;84.38;27.92;;;5.70;99.90;;;;;;5118901;27;20054;-85
2022/11/14 04:42:18;;;;;;;81.85;26.92;;;5.70;99.90;;;;;;5102549;27;20038;-80
2022/11/14 04:44:44;;;;;;;95.30;29.10;;;5.70;99.90;;;;;;5120704;27;20390;-85
2022/11/14 04:47:09;;;;;;;82.70;27.17;;;5.80;99.90;;;;;;5123507;27;20463;-83
2022/11/14 04:49:35;;;;;;;82.47;28.13;;;5.80;99.90;;;;;;5123055;27;20114;-83
2022/11/14 04:52:01;;;;;;;83.15;27.70;;;5.70;99.90;;;;;;5113832;28;20039;-77
2022/11/14 04:54:26;;;;;;;83.40;28.58;;;5.70;99.90;;;;;;5135196;27;20051;-82
2022/11/14 04:56:52;;;;;;;93.20;28.10;;;5.70;99.90;;;;;;5154776;27;20054;-79
2022/11/14 04:59:18;;;;;;;85.85;27.55;;;5.70;99.90;;;;;;5131857;28;20049;-84
2022/11/14 05:01:43;;;;;;;81.20;25.42;;;5.80;99.90;;;;;;5118951;28;20149;-82
2022/11/14 05:04:09;;;;;;;88.32;28.13;;;5.80;99.90;;;;;;5136336;28;20482;-81
2022/11/14 05:06:35;;;;;;;84.10;26.17;;;5.80;99.90;;;;;;5098921;28;20051;-79
2022/11/14 05:09:00;;;;;;;83.65;28.65;;;5.90;99.90;;;;;;5134898;28;20043;-82
2022/11/14 05:11:26;;;;;;;90.30;28.65;;;5.80;99.90;;;;;;5134818;28;20070;-78
2022/11/14 05:13:52;;;;;;;81.35;26.48;;;5.80;99.90;;;;;;5134857;28;20036;-77
2022/11/14 05:16:17;;;;;;;63.38;21.65;;;5.80;99.90;;;;;;5081831;28;20055;-80
2022/11/14 05:18:43;;;;;;;83.38;26.58;;;5.90;99.90;;;;;;5134353;28;20459;-82
2022/11/14 05:21:14;;;;;;;85.32;29.10;;;5.80;99.90;;;;;;5098668;28;20051;-83
2022/11/14 05:23:40;;;;;;;79.25;27.73;;;5.70;99.90;;;;;;5117422;27;20486;-82
2022/11/14 05:26:13;;;;;;;89.57;29.27;;;5.70;99.90;;;;;;5119792;27;20039;-83
2022/11/14 05:28:39;;;;;;;92.95;28.67;;;5.60;99.90;;;;;;5119683;27;20120;-80
2022/11/14 05:31:07;;;;;;;79.80;26.42;;;5.60;99.90;;;;;;5119194;27;20466;-84
2022/11/14 05:33:34;;;;;;;84.95;27.38;;;5.60;99.90;;;;;;5119976;27;20264;-81
2022/11/14 05:36:11;;;;;;;84.57;28.88;;;5.60;99.90;;;;;;5119705;27;20383;-83
2022/11/14 05:38:37;;;;;;;84.80;28.13;;;5.60;99.90;;;;;;5120065;27;20051;-81
2022/11/14 05:41:13;;;;;;;85.88;29.63;;;5.60;99.90;;;;;;5119554;27;20043;-81
2022/11/14 05:43:39;;;;;;;89.18;28.77;;;5.70;99.90;;;;;;5138139;27;20051;-79
2022/11/14 05:46:08;;;;;;;79.63;26.05;;;5.70;99.90;;;;;;5137855;27;20122;-82
2022/11/14 05:48:34;;;;;;;83.43;29.65;;;5.80;99.90;;;;;;5103479;27;20066;-77
2022/11/14 05:51:02;;;;;;;92.85;29.60;;;5.70;99.90;;;;;;5119462;27;20046;-82
2022/11/14 05:53:28;;;;;;;;;;;5.70;99.90;;;;;;5119342;27;20104;-82
2022/11/14 05:55:54;;;;;;;87.78;29.10;;;5.70;99.90;;;;;;5118859;27;19920;-83
2022/11/14 05:58:20;;;;;;;88.43;28.88;;;5.70;99.90;;;;;;5084804;27;20039;-82
2022/11/14 06:00:46;;;;;;;84.72;28.75;;;5.80;99.90;;;;;;5101407;27;20531;-81
2022/11/14 06:03:15;;;;;;;85.60;29.50;;;5.70;99.90;;;;;;5137577;27;20054;-82
2022/11/14 06:05:41;;;;;;;93.57;29.02;;;5.80;99.90;;;;;;5137705;27;20368;-82
2022/11/14 06:08:07;;;;;;;77.25;24.17;;;5.70;99.90;;;;;;5138129;27;20047;-81
2022/11/14 06:10:36;;;;;;;77.20;23.38;;;5.70;99.90;;;;;;5103594;27;20074;-81
2022/11/14 06:13:01;;;;;;;86.70;29.75;;;5.70;99.90;;;;;;5104803;27;20091;-78
2022/11/14 06:15:27;;;;;;;94.68;29.65;;;5.80;99.90;;;;;;5106645;27;20053;-85
2022/11/14 06:17:54;;;;;;;96.20;29.52;;;5.70;99.90;;;;;;5122968;27;20491;-83
2022/11/14 06:20:20;;;;;;;85.40;27.70;;;5.70;99.90;;;;;;5138627;27;20059;-81
2022/11/14 06:22:45;;;;;;;87.07;27.92;;;5.70;99.90;;;;;;5137894;27;20047;-82
2022/11/14 06:25:11;;;;;;;89.80;27.65;;;5.60;99.90;;;;;;5118380;27;20100;-83
2022/11/14 06:27:37;;;;;;;91.10;29.27;;;5.60;99.90;;;;;;5136605;27;20336;-84
2022/11/14 06:30:03;;;;;;;91.97;28.83;;;5.50;99.90;;;;;;5102044;27;20189;-79
2022/11/14 06:32:29;;;;;;;91.28;28.17;;;5.60;99.90;;;;;;5119110;27;20047;-82
2022/11/14 06:34:55;;;;;;;90.70;27.55;;;5.60;99.90;;;;;;5135995;27;20042;-84
2022/11/14 06:37:20;;;;;;;92.15;28.58;;;5.70;99.90;;;;;;5138392;27;20058;-82
2022/11/14 06:39:46;;;;;;;79.80;26.02;;;5.50;99.90;;;;;;5141902;27;20375;-84
2022/11/14 06:42:14;;;;;;;93.22;28.20;;;5.50;99.90;;;;;;5120728;27;20054;-84
2022/11/14 06:44:40;;;;;;;84.25;27.92;;;5.50;99.90;;;;;;5119007;27;20199;-77
2022/11/14 06:47:06;;;;;;;85.10;26.90;;;5.40;99.90;;;;;;5101797;27;20043;-81
2022/11/14 06:49:31;;;;;;;85.45;24.73;;;5.30;99.90;;;;;;5118902;27;20070;-78
2022/11/14 06:51:57;;;;;;;81.18;27.75;;;5.30;99.90;;;;;;5102773;27;20498;-82
2022/11/14 06:54:23;;;;;;;84.30;26.30;;;5.20;99.90;;;;;;5139080;27;20077;-83
2022/11/14 06:56:48;;;;;;;81.80;25.92;;;5.10;99.90;;;;;;5140616;27;20047;-83
2022/11/14 06:59:14;;;;;;;85.70;26.85;;;5.10;99.90;;;;;;5139809;27;20047;-86
2022/11/14 07:01:40;;;;;;;83.50;26.85;;;5.00;99.90;;;;;;5119410;27;20077;-85
2022/11/14 07:04:05;;;;;;;87.40;28.13;;;5.00;99.90;;;;;;5100972;27;20518;-83
2022/11/14 07:06:31;;;;;;;82.90;26.80;;;4.90;99.90;;;;;;5119264;27;20125;-85
2022/11/14 07:08:58;;;;;;;88.65;27.90;;;4.80;99.90;;;;;;5101442;27;20069;-84
2022/11/14 07:11:28;;;;;;;83.97;27.17;;;4.70;99.90;;;;;;5118649;27;20049;-82
2022/11/14 07:13:57;;;;;;;89.18;27.58;;;4.70;99.90;;;;;;5142378;27;20076;-83
2022/11/14 07:16:34;;;;;;;80.85;25.23;;;4.70;99.90;;;;;;5124322;27;20035;-83
2022/11/14 07:19:01;;;;;;;85.97;27.73;;;4.70;99.90;;;;;;5125164;27;20126;-84
2022/11/14 07:21:32;;;;;;;93.88;28.58;;;4.70;99.90;;;;;;5122664;28;20066;-83
2022/11/14 07:23:58;;;;;;;89.63;32.25;;;4.70;99.90;;;;;;5122776;28;20114;-82
2022/11/14 07:26:27;;;;;;;93.85;31.17;;;4.60;99.90;;;;;;5120177;28;20075;-81
2022/11/14 07:28:53;;;;;;;91.55;29.58;;;4.60;99.90;;;;;;5117101;28;20036;-85
2022/11/14 07:31:28;;;;;;;94.28;29.33;;;4.60;99.90;;;;;;5084225;28;20500;-85
2022/11/14 07:33:54;;;;;;;94.07;29.83;;;4.60;99.90;;;;;;5097946;28;20051;-82
2022/11/14 07:36:19;;;;;;;91.25;27.95;;;4.60;99.90;;;;;;5113662;28;20357;-82
2022/11/14 07:38:45;;;;;;;92.50;28.45;;;4.60;99.90;;;;;;5117390;28;20157;-83
2022/11/14 07:41:14;;;;;;;93.63;28.80;;;4.70;99.90;;;;;;5098703;28;20471;-80
2022/11/14 07:43:46;;;;;;;89.88;27.02;;;4.70;99.90;;;;;;5118515;28;20043;-81
2022/11/14 07:46:17;;;;;;;91.30;27.00;;;4.70;99.90;;;;;;5122989;28;20039;-84
2022/11/14 07:48:47;;;;;;;97.78;28.42;;;4.70;99.90;;;;;;5105419;28;20050;-80
2022/11/14 07:51:17;;;;;;;95.50;27.88;;;4.70;99.90;;;;;;5124993;28;20054;-80
2022/11/14 07:53:52;;;;;;;95.05;27.25;;;4.70;99.90;;;;;;5116432;28;20047;-81
2022/11/14 07:56:19;;;;;;;91.53;28.23;;;4.70;99.90;;;;;;5113644;28;20130;-81
2022/11/14 07:58:45;;;;;;;92.70;28.40;;;4.80;99.90;;;;;;5114136;28;20043;-82
2022/11/14 08:01:12;;;;;;;72.50;22.88;;;4.90;99.90;;;;;;5097484;28;20373;-81
2022/11/14 08:03:41;;;;;;;92.78;27.50;;;5.00;99.90;;;;;;5113680;28;20056;-84
2022/11/14 08:06:12;;;;;;;92.53;26.63;;;5.10;99.90;;;;;;5097178;28;20043;-82
2022/11/14 08:08:37;;;;;;;90.55;27.73;;;5.20;99.90;;;;;;5114947;28;20040;-83
2022/11/14 08:11:03;;;;;;;92.88;27.55;;;5.20;99.90;;;;;;5113496;28;20065;-83
2022/11/14 08:13:33;;;;;;;92.22;28.23;;;5.20;99.90;;;;;;5096519;28;20050;-83
2022/11/14 08:16:05;;;;;;;87.50;27.42;;;5.30;99.90;;;;;;5113489;28;20146;-84
2022/11/14 08:18:31;;;;;;;95.00;28.33;;;5.30;99.90;;;;;;5111805;28;20059;-79
2022/11/14 08:20:58;;;;;;;87.47;26.73;;;5.40;99.90;;;;;;5122152;27;20066;-81
2022/11/14 08:23:24;;;;;;;98.43;28.15;;;5.40;99.90;;;;;;5116469;27;20047;-78
2022/11/14 08:25:50;;;;;;;89.03;27.17;;;5.40;99.90;;;;;;5098692;27;20506;-81
2022/11/14 08:28:16;;;;;;;94.32;28.05;;;5.50;99.90;;;;;;5115866;27;20139;-82
2022/11/14 08:30:41;;;;;;;86.28;26.83;;;5.50;99.90;;;;;;5115752;27;20078;-82
2022/11/14 08:33:08;;;;;;;87.72;27.58;;;5.50;99.90;;;;;;5134340;27;20192;-82
2022/11/14 08:35:33;;;;;;;91.50;29.23;;;5.50;99.90;;;;;;5116245;27;20043;-82
2022/11/14 08:38:02;;;;;;;86.82;27.88;;;5.60;99.90;;;;;;5117464;27;20490;-83
2022/11/14 08:40:29;;;;;;;81.63;28.10;;;5.60;99.90;;;;;;5135545;27;20134;-81
2022/11/14 08:43:01;;;;;;;83.85;26.23;;;5.60;99.90;;;;;;5115757;27;20094;-81
2022/11/14 08:45:28;;;;;;;80.55;25.55;;;5.60;99.90;;;;;;5118034;27;20050;-81
2022/11/14 08:47:54;;;;;;;86.70;27.05;;;5.60;99.90;;;;;;5147848;27;20082;-82
2022/11/14 08:50:20;;;;;;;86.75;27.40;;;5.60;99.90;;;;;;5119047;27;20043;-81
2022/11/14 08:52:50;;;;;;;81.10;26.13;;;5.60;99.90;;;;;;5118844;28;20130;-83
2022/11/14 08:55:17;;;;;;;89.90;26.27;;;5.60;99.90;;;;;;5119785;27;20126;-79
2022/11/14 08:57:43;;;;;;;79.72;25.10;;;5.60;99.90;;;;;;5118830;28;20047;-81
2022/11/14 09:00:09;;;;;;;81.73;26.33;;;5.70;99.90;;;;;;5142580;27;20049;-80
2022/11/14 09:02:35;;;;;;;65.30;22.55;;;5.70;99.90;;;;;;5121397;28;20284;-81
2022/11/14 09:05:01;;;;;;;82.43;26.13;;;5.90;99.90;;;;;;5102155;28;20057;-80
2022/11/14 09:07:27;;;;;;;75.43;25.67;;;5.90;99.90;;;;;;5117569;28;20106;-76
2022/11/14 09:09:53;;;;;;;75.10;25.53;;;5.90;99.90;;;;;;5100222;28;20550;-82
2022/11/14 09:12:19;;;;;;;77.05;26.02;;;5.90;99.90;;;;;;5116396;28;20371;-81
2022/11/14 09:14:44;;;;;;;78.25;27.05;;;5.90;99.90;;;;;;5116474;28;20054;-82
2022/11/14 09:17:10;;;;;;;80.43;26.10;;;5.90;99.90;;;;;;5116827;28;20047;-81
2022/11/14 09:19:36;;;;;;;80.93;26.70;;;6.00;99.90;;;;;;5116516;28;20491;-82
2022/11/14 09:22:01;;;;;;;76.97;25.33;;;6.00;99.90;;;;;;5115858;28;20080;-82
2022/11/14 09:24:27;;;;;;;76.70;25.38;;;6.10;99.90;;;;;;5134849;28;20205;-81
2022/11/14 09:26:53;;;;;;;73.45;24.33;;;6.10;99.90;;;;;;5116298;28;20039;-80
2022/11/14 09:29:19;;;;;;;74.68;24.80;;;6.10;99.90;;;;;;5099064;28;20082;-78
2022/11/14 09:31:45;;;;;;;70.95;24.33;;;6.20;99.90;;;;;;5133876;28;20055;-81
2022/11/14 09:34:10;;;;;;;72.53;25.10;;;6.30;99.90;;;;;;5133632;28;20460;-81
2022/11/14 09:36:36;;;;;;;69.90;23.83;;;6.30;99.90;;;;;;5134016;28;20063;-81
2022/11/14 09:39:02;;;;;;;67.70;21.75;;;6.20;99.90;;;;;;5133918;28;20113;-80
2022/11/14 09:41:45;;;;;;;69.75;24.30;;;6.40;99.90;;;;;;5133672;28;20546;-81
2022/11/14 09:44:27;;;;;;;68.07;23.25;;;6.50;99.90;;;;;;5133396;28;20044;-81
2022/11/14 09:47:20;;;;;;;74.07;25.50;;;6.40;99.90;;;;;;5134020;28;20112;-81
2022/11/14 09:49:48;;;;;;;62.90;22.58;;;6.50;99.90;;;;;;5115251;28;20047;-82
2022/11/14 09:52:37;;;;;;;66.25;23.20;;;6.60;99.90;;;;;;5133333;28;20043;-80
2022/11/14 09:55:10;;;;;;;61.05;21.30;;;6.60;99.90;;;;;;5115015;28;20394;-82
2022/11/14 09:57:36;;;;;;;66.05;22.15;;;6.70;99.90;;;;;;5133527;28;20055;-80
2022/11/14 10:00:11;;;;;;;61.05;23.35;;;6.70;99.90;;;;;;5115338;28;20039;-79
2022/11/14 10:02:58;;;;;;;60.33;22.90;;;6.80;99.90;;;;;;5098572;28;20051;-79
2022/11/14 10:05:30;;;;;;;;;;;6.80;99.90;;;;;;5134303;28;20070;-76
2022/11/14 10:08:27;;;;;;;66.20;22.13;;;6.90;99.90;;;;;;5134301;28;20116;-81
2022/11/14 10:11:04;;;;;;;53.28;19.10;;;6.90;99.90;;;;;;5136064;27;20122;-80
2022/11/14 10:13:38;;;;;;;59.05;21.20;;;;;;;;;;5119047;27;20049;-80
2022/11/14 10:16:07;;;;;;;64.97;23.13;;;;;;;;;;5118267;27;20054;-79
2022/11/14 10:18:59;;;;;;;59.17;22.00;;;6.90;99.90;;;;;;5118742;27;20122;-81
2022/11/14 10:21:33;;;;;;;55.33;21.05;;;7.10;99.90;;;;;;5106928;27;20054;-82
2022/11/14 10:24:14;;;;;;;61.17;22.15;;;7.10;99.90;;;;;;5136937;27;20047;-82
2022/11/14 10:27:17;;;;;;;63.60;21.17;;;7.10;99.90;;;;;;5137212;27;20079;-81
2022/11/14 10:30:01;;;;;;;59.08;20.80;;;7.20;99.90;;;;;;5118645;27;20122;-82
2022/11/14 10:32:35;;;;;;;55.53;22.15;;;7.40;99.90;;;;;;5136887;27;20393;-82
2022/11/14 10:35:18;;;;;;;58.03;22.52;;;7.30;99.90;;;;;;5119116;27;20058;-82
2022/11/14 10:38:09;;;;;;;60.83;22.90;;;7.30;99.90;;;;;;5125231;27;20043;-81
2022/11/14 10:40:39;;;;;;;55.17;18.55;;;7.50;99.90;;;;;;5148208;27;20047;-80
2022/11/14 10:43:31;;;;;;;54.63;21.25;;;7.40;99.90;;;;;;5136229;27;20043;-80
2022/11/14 10:46:22;;;;;;;54.28;21.35;;;7.40;99.90;;;;;;5129851;27;20057;-80
2022/11/14 10:48:51;;;;;;;58.22;20.17;;;7.40;99.90;;;;;;5102354;27;20382;-81
2022/11/14 10:51:28;;;;;;;53.70;20.85;;;7.50;99.90;;;;;;5118682;27;20047;-80
2022/11/14 10:53:56;;;;;;;;;;;7.50;99.90;;;;;;5137021;27;20351;-82
2022/11/14 10:56:22;;;;;;;56.00;21.35;;;7.50;99.90;;;;;;5136020;27;20002;-81
2022/11/14 10:58:47;;;;;;;56.50;20.40;;;7.50;99.90;;;;;;5101705;27;20046;-83
2022/11/14 11:01:37;;;;;;;54.10;20.13;;;7.50;99.90;;;;;;5118123;27;20558;-78
2022/11/14 11:04:20;;;;;;;48.78;20.00;;;7.60;99.90;;;;;;5137139;27;20062;-82
2022/11/14 11:06:47;;;;;;;52.50;20.13;;;7.60;99.90;;;;;;5139667;27;20043;-78
2022/11/14 11:12:03;;;;;;;53.63;19.00;;;7.70;99.90;;;;;;5130283;27;20112;-78
2022/11/14 11:14:30;;;;;;;56.60;21.63;;;7.70;99.90;;;;;;5146025;27;20463;-82
2022/11/14 11:17:11;;;;;;;54.65;20.65;;;7.80;99.90;;;;;;5112180;27;20138;-83
2022/11/14 11:19:38;;;;;;;52.67;21.17;;;7.80;99.90;;;;;;5145137;27;20086;-84
2022/11/14 11:22:21;;;;;;;51.08;19.85;;;7.80;99.90;;;;;;5140776;27;20461;-80
2022/11/14 11:24:47;;;;;;;48.05;19.35;;;7.90;99.90;;;;;;5137391;27;20049;-81
2022/11/14 11:27:19;;;;;;;42.80;18.65;;;8.00;99.90;;;;;;5117516;27;20406;-80
2022/11/14 11:29:45;;;;;;;51.20;19.02;;;8.00;99.90;;;;;;5118061;27;20046;-80
2022/11/14 11:32:23;;;;;;;55.07;19.77;;;8.00;99.90;;;;;;5140658;27;20433;-78
2022/11/14 11:34:50;;;;;;;49.55;19.45;;;8.10;99.90;;;;;;5138314;27;20039;-80
2022/11/14 11:37:23;;;;;;;53.75;19.23;;;8.20;99.90;;;;;;5104227;27;20069;-83
2022/11/14 11:39:56;;;;;;;52.00;20.25;;;8.10;99.90;;;;;;5105414;27;20043;-80
2022/11/14 11:42:36;;;;;;;47.03;19.45;;;8.00;99.90;;;;;;5136185;27;20043;-82
2022/11/14 11:45:08;;;;;;;45.50;18.75;;;8.10;99.90;;;;;;5117321;27;20084;-80
2022/11/14 11:47:35;;;;;;;53.92;20.67;;;8.20;99.90;;;;;;5116608;27;20046;-80
2022/11/14 11:50:03;;;;;;;44.92;18.38;;;8.20;99.90;;;;;;5099782;27;20126;-78
2022/11/14 11:52:50;;;;;;;50.10;19.42;;;8.20;99.90;;;;;;5117129;27;20043;-82
2022/11/14 11:55:31;;;;;;;50.85;18.58;;;8.20;99.90;;;;;;5134839;27;20062;-82
2022/11/14 11:57:57;;;;;;;49.88;18.83;;;8.20;99.90;;;;;;5100277;27;20126;-83
2022/11/14 12:00:23;;;;;;;45.08;19.42;;;8.30;99.90;;;;;;5135566;27;20075;-82
2022/11/14 12:02:51;;;;;;;45.25;18.55;;;8.30;99.90;;;;;;5117456;27;20107;-82
2022/11/14 12:05:23;;;;;;;43.22;17.88;;;8.30;99.90;;;;;;5135138;27;20114;-79
2022/11/14 12:08:05;;;;;;;48.05;19.35;;;8.30;99.90;;;;;;5118896;27;20043;-81
2022/11/14 12:10:35;;;;;;;43.53;17.45;;;8.30;99.90;;;;;;5135743;27;20093;-78
2022/11/14 12:13:11;;;;;;;50.90;18.52;;;8.40;99.90;;;;;;5101554;27;20332;-80
2022/11/14 12:16:00;;;;;;;40.83;17.83;;;8.40;99.90;;;;;;5136283;27;20066;-81
2022/11/14 12:18:50;;;;;;;44.35;16.67;;;8.50;99.90;;;;;;5136426;27;20047;-79
2022/11/14 12:21:40;;;;;;;44.20;17.95;;;8.50;99.90;;;;;;5099511;27;20051;-84
2022/11/14 12:24:16;;;;;;;41.97;17.95;;;8.60;99.90;;;;;;5116317;27;20127;-79
2022/11/14 12:27:03;;;;;;;42.92;18.45;;;8.60;99.90;;;;;;5116679;27;20054;-79
2022/11/14 12:29:45;;;;;;;42.25;18.10;;;8.60;99.90;;;;;;5134874;27;20045;-81
2022/11/14 12:32:16;;;;;;;40.25;16.70;;;8.60;99.90;;;;;;5116097;27;20043;-81
2022/11/14 12:34:45;;;;;;;42.30;18.10;;;8.60;99.90;;;;;;5099881;27;20046;-81
2022/11/14 12:37:41;;;;;;;41.80;18.10;;;8.70;99.90;;;;;;5134152;27;20150;-83
2022/11/14 12:40:24;;;;;;;42.03;16.27;;;8.70;99.90;;;;;;5090947;27;20057;-80
2022/11/14 12:42:50;;;;;;;39.20;15.93;;;8.70;99.90;;;;;;5136544;27;20043;-83
2022/11/14 12:45:35;;;;;;;41.77;16.77;;;8.80;99.90;;;;;;5134831;27;20444;-82
2022/11/14 12:48:21;;;;;;;41.60;17.63;;;8.80;99.90;;;;;;5134980;27;20049;-79
2022/11/14 12:50:47;;;;;;;41.03;17.13;;;8.90;99.90;;;;;;5134943;27;20078;-82